Flight Briefing for CPX325

Departure Arrival
March Air Reserve Base (KRIV)
Click to view FAA NOTAMS
Fort Worth Alliance Airport (KAFW)
Click to view FAA NOTAMS
Departure Time Arrival Time
N/A N/A
Aircraft Distance
B767-300BDSF 1001nm
Departure METAR Arrival METAR
KRIV 181458Z AUTO 00000KT 10SM CLR 08/08 A3001 RMK AO2 SLP160 T00790079 52010 KAFW 181453Z 03003KT 10SM FEW250 12/02 A3034 RMK AO2 SLP272 T01220022 53017
Suggested Route
TRM J78 ABQ J72 TURKI WESAT2


View recent IFR Routes data
Notes



Charts and Procedures

Charts for KRIV
No chart available
Charts for KAFW
No chart available

Windy.com Weather Map